Terminal Aerodrome Forecast
Issued by NWS Shreveport, LA

Home | Current Version | Previous Version | Text Only | Print | Product List | Glossary On
Versions: 1 2 3 4 5 6 7 8 9 10 11 12 13 14 15 16 17
728
FTUS44 KSHV 140601 AAA
TAFLFK
TAF AMD
KLFK 140601Z 1406/1506 14009KT P6SM OVC018
     FM140900 15008KT P6SM OVC015
     FM141200 15007KT P6SM OVC010
     FM141800 16010KT P6SM OVC020
     FM150000 15008KT 6SM BR VCSH OVC025=

USA.gov is the U.S. government's official web portal to all federal, state and local government web resources and services.